sensor_id;sensor_type;location;lat;lon;timestamp;P1;durP1;ratioP1;P2;durP2;ratioP2
1346;SDS011;667;48.796;9.480;2024-03-06T00:00:41;8.83;;;6.20;;
1346;SDS011;667;48.796;9.480;2024-03-06T00:03:06;6.67;;;5.97;;
1346;SDS011;667;48.796;9.480;2024-03-06T00:05:32;7.20;;;6.10;;
1346;SDS011;667;48.796;9.480;2024-03-06T00:07:57;7.00;;;6.30;;
1346;SDS011;667;48.796;9.480;2024-03-06T00:10:23;6.40;;;5.77;;
1346;SDS011;667;48.796;9.480;2024-03-06T00:12:48;9.03;;;5.83;;
1346;SDS011;667;48.796;9.480;2024-03-06T00:15:14;8.63;;;6.30;;
1346;SDS011;667;48.796;9.480;2024-03-06T00:17:39;8.90;;;5.70;;
1346;SDS011;667;48.796;9.480;2024-03-06T00:20:06;16.35;;;5.93;;
1346;SDS011;667;48.796;9.480;2024-03-06T00:22:34;6.55;;;5.95;;
1346;SDS011;667;48.796;9.480;2024-03-06T00:24:59;7.03;;;6.00;;
1346;SDS011;667;48.796;9.480;2024-03-06T00:27:25;7.27;;;5.90;;
1346;SDS011;667;48.796;9.480;2024-03-06T00:29:50;6.50;;;5.70;;
1346;SDS011;667;48.796;9.480;2024-03-06T00:32:16;7.00;;;5.50;;
1346;SDS011;667;48.796;9.480;2024-03-06T00:34:41;7.70;;;6.20;;
1346;SDS011;667;48.796;9.480;2024-03-06T00:37:07;7.00;;;6.10;;
1346;SDS011;667;48.796;9.480;2024-03-06T00:39:33;5.50;;;4.80;;
1346;SDS011;667;48.796;9.480;2024-03-06T00:41:58;7.90;;;5.83;;
1346;SDS011;667;48.796;9.480;2024-03-06T00:44:24;8.17;;;5.70;;
1346;SDS011;667;48.796;9.480;2024-03-06T00:46:49;6.57;;;4.70;;
1346;SDS011;667;48.796;9.480;2024-03-06T00:49:15;8.33;;;5.47;;
1346;SDS011;667;48.796;9.480;2024-03-06T00:51:41;10.03;;;5.50;;
1346;SDS011;667;48.796;9.480;2024-03-06T00:54:06;6.30;;;5.70;;
1346;SDS011;667;48.796;9.480;2024-03-06T00:56:32;5.57;;;5.00;;
1346;SDS011;667;48.796;9.480;2024-03-06T00:58:57;5.53;;;5.03;;
1346;SDS011;667;48.796;9.480;2024-03-06T01:01:23;5.83;;;4.53;;
1346;SDS011;667;48.796;9.480;2024-03-06T01:03:48;5.93;;;5.23;;
1346;SDS011;667;48.796;9.480;2024-03-06T01:06:14;6.00;;;5.03;;
1346;SDS011;667;48.796;9.480;2024-03-06T01:08:40;6.97;;;5.00;;
1346;SDS011;667;48.796;9.480;2024-03-06T01:11:06;9.90;;;5.70;;
1346;SDS011;667;48.796;9.480;2024-03-06T01:13:31;5.73;;;4.73;;
1346;SDS011;667;48.796;9.480;2024-03-06T01:15:57;6.33;;;5.43;;
1346;SDS011;667;48.796;9.480;2024-03-06T01:18:23;6.90;;;6.20;;
1346;SDS011;667;48.796;9.480;2024-03-06T01:20:48;6.73;;;5.00;;
1346;SDS011;667;48.796;9.480;2024-03-06T01:23:14;8.30;;;5.70;;
1346;SDS011;667;48.796;9.480;2024-03-06T01:25:39;8.20;;;5.03;;
1346;SDS011;667;48.796;9.480;2024-03-06T01:28:05;6.03;;;5.43;;
1346;SDS011;667;48.796;9.480;2024-03-06T01:30:31;5.20;;;4.47;;
1346;SDS011;667;48.796;9.480;2024-03-06T01:32:56;6.20;;;4.90;;
1346;SDS011;667;48.796;9.480;2024-03-06T01:35:22;5.47;;;4.90;;
1346;SDS011;667;48.796;9.480;2024-03-06T01:37:48;6.80;;;5.47;;
1346;SDS011;667;48.796;9.480;2024-03-06T01:40:14;6.50;;;4.23;;
1346;SDS011;667;48.796;9.480;2024-03-06T01:42:40;7.87;;;5.90;;
1346;SDS011;667;48.796;9.480;2024-03-06T01:45:05;5.17;;;4.43;;
1346;SDS011;667;48.796;9.480;2024-03-06T01:47:32;8.20;;;5.60;;
1346;SDS011;667;48.796;9.480;2024-03-06T01:49:57;6.10;;;4.63;;
1346;SDS011;667;48.796;9.480;2024-03-06T01:52:24;6.85;;;5.07;;
1346;SDS011;667;48.796;9.480;2024-03-06T01:54:50;11.73;;;5.30;;
1346;SDS011;667;48.796;9.480;2024-03-06T01:57:16;4.43;;;4.03;;
1346;SDS011;667;48.796;9.480;2024-03-06T01:59:44;5.80;;;5.20;;
1346;SDS011;667;48.796;9.480;2024-03-06T02:02:10;6.07;;;4.10;;
1346;SDS011;667;48.796;9.480;2024-03-06T02:04:38;6.88;;;6.18;;
1346;SDS011;667;48.796;9.480;2024-03-06T02:07:07;7.67;;;4.90;;
1346;SDS011;667;48.796;9.480;2024-03-06T02:09:35;7.60;;;4.70;;
1346;SDS011;667;48.796;9.480;2024-03-06T02:12:01;6.30;;;4.10;;
1346;SDS011;667;48.796;9.480;2024-03-06T02:14:28;6.78;;;5.20;;
1346;SDS011;667;48.796;9.480;2024-03-06T02:16:54;5.60;;;5.03;;
1346;SDS011;667;48.796;9.480;2024-03-06T02:19:19;6.00;;;5.30;;
1346;SDS011;667;48.796;9.480;2024-03-06T02:21:45;6.03;;;5.53;;
1346;SDS011;667;48.796;9.480;2024-03-06T02:24:11;7.07;;;5.03;;
1346;SDS011;667;48.796;9.480;2024-03-06T02:26:38;7.10;;;5.32;;
1346;SDS011;667;48.796;9.480;2024-03-06T02:29:03;7.20;;;5.80;;
1346;SDS011;667;48.796;9.480;2024-03-06T02:31:31;7.00;;;5.10;;
1346;SDS011;667;48.796;9.480;2024-03-06T02:33:58;5.43;;;4.80;;
1346;SDS011;667;48.796;9.480;2024-03-06T02:36:23;6.57;;;5.50;;
1346;SDS011;667;48.796;9.480;2024-03-06T02:38:49;5.73;;;5.23;;
1346;SDS011;667;48.796;9.480;2024-03-06T02:41:15;6.00;;;4.50;;
1346;SDS011;667;48.796;9.480;2024-03-06T02:43:41;7.37;;;5.57;;
1346;SDS011;667;48.796;9.480;2024-03-06T02:46:07;5.00;;;4.50;;
1346;SDS011;667;48.796;9.480;2024-03-06T02:48:32;5.17;;;4.67;;
1346;SDS011;667;48.796;9.480;2024-03-06T02:50:58;6.60;;;3.97;;
1346;SDS011;667;48.796;9.480;2024-03-06T02:53:24;5.78;;;4.70;;
1346;SDS011;667;48.796;9.480;2024-03-06T02:55:51;6.15;;;4.40;;
1346;SDS011;667;48.796;9.480;2024-03-06T02:58:17;6.13;;;4.20;;
1346;SDS011;667;48.796;9.480;2024-03-06T03:00:43;6.37;;;3.83;;
1346;SDS011;667;48.796;9.480;2024-03-06T03:03:09;4.53;;;4.10;;
1346;SDS011;667;48.796;9.480;2024-03-06T03:05:39;4.25;;;3.85;;
1346;SDS011;667;48.796;9.480;2024-03-06T03:08:05;7.00;;;4.30;;
1346;SDS011;667;48.796;9.480;2024-03-06T03:10:31;4.70;;;4.20;;
1346;SDS011;667;48.796;9.480;2024-03-06T03:12:58;6.05;;;4.90;;
1346;SDS011;667;48.796;9.480;2024-03-06T03:15:24;7.88;;;5.20;;
1346;SDS011;667;48.796;9.480;2024-03-06T03:17:50;8.10;;;5.30;;
1346;SDS011;667;48.796;9.480;2024-03-06T03:20:15;5.80;;;5.00;;
1346;SDS011;667;48.796;9.480;2024-03-06T03:22:41;5.95;;;4.60;;
1346;SDS011;667;48.796;9.480;2024-03-06T03:25:09;5.13;;;4.55;;
1346;SDS011;667;48.796;9.480;2024-03-06T03:27:38;5.65;;;4.70;;
1346;SDS011;667;48.796;9.480;2024-03-06T03:30:07;5.38;;;4.35;;
1346;SDS011;667;48.796;9.480;2024-03-06T03:32:33;7.18;;;6.45;;
1346;SDS011;667;48.796;9.480;2024-03-06T03:34:59;8.20;;;7.30;;
1346;SDS011;667;48.796;9.480;2024-03-06T03:37:25;8.13;;;7.33;;
1346;SDS011;667;48.796;9.480;2024-03-06T03:39:50;8.10;;;7.30;;
1346;SDS011;667;48.796;9.480;2024-03-06T03:42:16;9.57;;;7.70;;
1346;SDS011;667;48.796;9.480;2024-03-06T03:44:41;9.90;;;8.30;;
1346;SDS011;667;48.796;9.480;2024-03-06T03:47:07;9.73;;;8.10;;
1346;SDS011;667;48.796;9.480;2024-03-06T03:49:32;10.80;;;8.80;;
1346;SDS011;667;48.796;9.480;2024-03-06T03:51:58;8.30;;;7.50;;
1346;SDS011;667;48.796;9.480;2024-03-06T03:54:24;7.00;;;6.30;;
1346;SDS011;667;48.796;9.480;2024-03-06T03:56:50;5.50;;;5.00;;
1346;SDS011;667;48.796;9.480;2024-03-06T03:59:15;5.70;;;4.77;;
1346;SDS011;667;48.796;9.480;2024-03-06T04:01:41;5.27;;;4.77;;
1346;SDS011;667;48.796;9.480;2024-03-06T04:04:06;6.80;;;5.40;;
1346;SDS011;667;48.796;9.480;2024-03-06T04:06:33;5.88;;;4.93;;
1346;SDS011;667;48.796;9.480;2024-03-06T04:08:59;6.65;;;5.95;;
1346;SDS011;667;48.796;9.480;2024-03-06T04:11:24;9.93;;;7.70;;
1346;SDS011;667;48.796;9.480;2024-03-06T04:13:50;10.13;;;7.60;;
1346;SDS011;667;48.796;9.480;2024-03-06T04:16:17;8.88;;;7.40;;
1346;SDS011;667;48.796;9.480;2024-03-06T04:18:43;8.98;;;7.70;;
1346;SDS011;667;48.796;9.480;2024-03-06T04:21:10;9.52;;;7.32;;
1346;SDS011;667;48.796;9.480;2024-03-06T04:23:35;10.73;;;8.80;;
1346;SDS011;667;48.796;9.480;2024-03-06T04:26:01;8.43;;;6.83;;
1346;SDS011;667;48.796;9.480;2024-03-06T04:28:27;8.48;;;5.90;;
1346;SDS011;667;48.796;9.480;2024-03-06T04:30:52;8.60;;;7.43;;
1346;SDS011;667;48.796;9.480;2024-03-06T04:33:18;6.80;;;5.90;;
1346;SDS011;667;48.796;9.480;2024-03-06T04:35:44;6.93;;;6.23;;
1346;SDS011;667;48.796;9.480;2024-03-06T04:38:09;6.97;;;6.27;;
1346;SDS011;667;48.796;9.480;2024-03-06T04:40:35;8.23;;;5.17;;
1346;SDS011;667;48.796;9.480;2024-03-06T04:43:01;4.80;;;4.30;;
1346;SDS011;667;48.796;9.480;2024-03-06T04:45:26;5.13;;;4.63;;
1346;SDS011;667;48.796;9.480;2024-03-06T04:47:53;4.65;;;4.07;;
1346;SDS011;667;48.796;9.480;2024-03-06T04:50:19;5.63;;;4.20;;
1346;SDS011;667;48.796;9.480;2024-03-06T04:52:45;4.97;;;4.03;;
1346;SDS011;667;48.796;9.480;2024-03-06T04:55:10;4.67;;;3.90;;
1346;SDS011;667;48.796;9.480;2024-03-06T04:57:37;7.10;;;4.18;;
1346;SDS011;667;48.796;9.480;2024-03-06T05:00:04;7.03;;;4.10;;
1346;SDS011;667;48.796;9.480;2024-03-06T05:02:33;5.00;;;4.47;;
1346;SDS011;667;48.796;9.480;2024-03-06T05:05:00;5.82;;;5.22;;
1346;SDS011;667;48.796;9.480;2024-03-06T05:07:27;5.28;;;4.78;;
1346;SDS011;667;48.796;9.480;2024-03-06T05:09:54;9.40;;;7.18;;
1346;SDS011;667;48.796;9.480;2024-03-06T05:12:20;8.37;;;6.77;;
1346;SDS011;667;48.796;9.480;2024-03-06T05:14:45;9.17;;;8.17;;
1346;SDS011;667;48.796;9.480;2024-03-06T05:17:11;7.43;;;6.23;;
1346;SDS011;667;48.796;9.480;2024-03-06T05:19:36;7.03;;;6.43;;
1346;SDS011;667;48.796;9.480;2024-03-06T05:22:02;7.60;;;6.90;;
1346;SDS011;667;48.796;9.480;2024-03-06T05:24:28;8.43;;;7.40;;
1346;SDS011;667;48.796;9.480;2024-03-06T05:26:54;11.07;;;7.38;;
1346;SDS011;667;48.796;9.480;2024-03-06T05:29:20;8.33;;;6.43;;
1346;SDS011;667;48.796;9.480;2024-03-06T05:31:45;7.60;;;6.90;;
1346;SDS011;667;48.796;9.480;2024-03-06T05:34:11;8.07;;;6.70;;
1346;SDS011;667;48.796;9.480;2024-03-06T05:36:37;7.53;;;5.50;;
1346;SDS011;667;48.796;9.480;2024-03-06T05:39:02;6.37;;;5.77;;
1346;SDS011;667;48.796;9.480;2024-03-06T05:41:37;8.35;;;6.28;;
1346;SDS011;667;48.796;9.480;2024-03-06T05:44:04;9.60;;;8.70;;
1346;SDS011;667;48.796;9.480;2024-03-06T05:46:30;9.33;;;8.10;;
1346;SDS011;667;48.796;9.480;2024-03-06T05:48:55;8.27;;;7.37;;
1346;SDS011;667;48.796;9.480;2024-03-06T05:51:21;10.40;;;7.30;;
1346;SDS011;667;48.796;9.480;2024-03-06T05:53:46;7.30;;;6.60;;
1346;SDS011;667;48.796;9.480;2024-03-06T05:56:12;8.80;;;6.70;;
1346;SDS011;667;48.796;9.480;2024-03-06T05:58:37;9.90;;;8.30;;
1346;SDS011;667;48.796;9.480;2024-03-06T06:01:03;10.37;;;8.47;;
1346;SDS011;667;48.796;9.480;2024-03-06T06:03:29;8.27;;;6.67;;
1346;SDS011;667;48.796;9.480;2024-03-06T06:05:55;9.32;;;7.80;;
1346;SDS011;667;48.796;9.480;2024-03-06T06:08:22;8.60;;;7.00;;
1346;SDS011;667;48.796;9.480;2024-03-06T06:10:47;10.00;;;8.10;;
1346;SDS011;667;48.796;9.480;2024-03-06T06:13:13;9.77;;;7.90;;
1346;SDS011;667;48.796;9.480;2024-03-06T06:15:39;8.57;;;7.68;;
1346;SDS011;667;48.796;9.480;2024-03-06T06:18:05;8.77;;;7.80;;
1346;SDS011;667;48.796;9.480;2024-03-06T06:20:31;14.30;;;7.97;;
1346;SDS011;667;48.796;9.480;2024-03-06T06:22:56;9.10;;;8.20;;
1346;SDS011;667;48.796;9.480;2024-03-06T06:25:22;11.87;;;9.20;;
1346;SDS011;667;48.796;9.480;2024-03-06T06:27:48;9.70;;;8.70;;
1346;SDS011;667;48.796;9.480;2024-03-06T06:30:14;14.05;;;11.77;;
1346;SDS011;667;48.796;9.480;2024-03-06T06:32:44;13.55;;;10.25;;
1346;SDS011;667;48.796;9.480;2024-03-06T06:35:10;14.20;;;11.97;;
1346;SDS011;667;48.796;9.480;2024-03-06T06:37:39;13.57;;;12.27;;
1346;SDS011;667;48.796;9.480;2024-03-06T06:40:07;14.63;;;11.50;;
1346;SDS011;667;48.796;9.480;2024-03-06T06:42:34;13.40;;;12.00;;
1346;SDS011;667;48.796;9.480;2024-03-06T06:45:00;11.95;;;10.70;;
1346;SDS011;667;48.796;9.480;2024-03-06T06:47:27;13.85;;;11.55;;
1346;SDS011;667;48.796;9.480;2024-03-06T06:49:53;11.80;;;10.70;;
1346;SDS011;667;48.796;9.480;2024-03-06T06:52:18;17.57;;;10.80;;
1346;SDS011;667;48.796;9.480;2024-03-06T06:54:44;11.57;;;10.13;;
1346;SDS011;667;48.796;9.480;2024-03-06T06:57:10;14.90;;;11.47;;
1346;SDS011;667;48.796;9.480;2024-03-06T06:59:35;12.13;;;9.30;;
1346;SDS011;667;48.796;9.480;2024-03-06T07:02:02;11.20;;;10.00;;
1346;SDS011;667;48.796;9.480;2024-03-06T07:04:27;12.50;;;10.80;;
1346;SDS011;667;48.796;9.480;2024-03-06T07:06:53;16.83;;;10.17;;
1346;SDS011;667;48.796;9.480;2024-03-06T07:09:19;11.83;;;9.83;;
1346;SDS011;667;48.796;9.480;2024-03-06T07:11:45;11.17;;;10.07;;
1346;SDS011;667;48.796;9.480;2024-03-06T07:14:13;14.77;;;10.43;;
1346;SDS011;667;48.796;9.480;2024-03-06T07:16:42;12.20;;;10.10;;
1346;SDS011;667;48.796;9.480;2024-03-06T07:19:09;13.80;;;12.43;;
1346;SDS011;667;48.796;9.480;2024-03-06T07:21:35;17.10;;;12.40;;
1346;SDS011;667;48.796;9.480;2024-03-06T07:24:02;13.80;;;10.60;;
1346;SDS011;667;48.796;9.480;2024-03-06T07:26:29;20.58;;;14.15;;
1346;SDS011;667;48.796;9.480;2024-03-06T07:28:55;13.48;;;11.75;;
1346;SDS011;667;48.796;9.480;2024-03-06T07:31:21;12.03;;;10.80;;
1346;SDS011;667;48.796;9.480;2024-03-06T07:33:46;13.00;;;10.40;;
1346;SDS011;667;48.796;9.480;2024-03-06T07:36:12;13.83;;;10.43;;
1346;SDS011;667;48.796;9.480;2024-03-06T07:38:38;13.00;;;10.63;;
1346;SDS011;667;48.796;9.480;2024-03-06T07:41:03;13.23;;;10.97;;
1346;SDS011;667;48.796;9.480;2024-03-06T07:43:29;14.13;;;10.97;;
1346;SDS011;667;48.796;9.480;2024-03-06T07:45:54;13.23;;;10.80;;
1346;SDS011;667;48.796;9.480;2024-03-06T07:48:20;14.50;;;10.80;;
1346;SDS011;667;48.796;9.480;2024-03-06T07:50:46;14.30;;;12.50;;
1346;SDS011;667;48.796;9.480;2024-03-06T07:53:11;14.17;;;12.67;;
1346;SDS011;667;48.796;9.480;2024-03-06T07:55:37;18.47;;;11.63;;
1346;SDS011;667;48.796;9.480;2024-03-06T07:58:04;12.60;;;11.40;;
1346;SDS011;667;48.796;9.480;2024-03-06T08:00:30;14.00;;;12.57;;
1346;SDS011;667;48.796;9.480;2024-03-06T08:02:56;13.20;;;10.82;;
1346;SDS011;667;48.796;9.480;2024-03-06T08:05:22;12.00;;;10.70;;
1346;SDS011;667;48.796;9.480;2024-03-06T08:07:47;17.20;;;10.70;;
1346;SDS011;667;48.796;9.480;2024-03-06T08:10:13;11.70;;;10.50;;
1346;SDS011;667;48.796;9.480;2024-03-06T08:12:43;11.52;;;10.40;;
1346;SDS011;667;48.796;9.480;2024-03-06T08:15:10;14.63;;;11.70;;
1346;SDS011;667;48.796;9.480;2024-03-06T08:17:41;14.02;;;11.82;;
1346;SDS011;667;48.796;9.480;2024-03-06T08:20:08;13.40;;;12.00;;
1346;SDS011;667;48.796;9.480;2024-03-06T08:22:35;15.10;;;12.40;;
1346;SDS011;667;48.796;9.480;2024-03-06T08:27:32;15.25;;;11.82;;
1346;SDS011;667;48.796;9.480;2024-03-06T08:29:57;14.07;;;12.00;;
1346;SDS011;667;48.796;9.480;2024-03-06T08:32:23;15.97;;;12.57;;
1346;SDS011;667;48.796;9.480;2024-03-06T08:34:49;15.53;;;12.73;;
1346;SDS011;667;48.796;9.480;2024-03-06T08:37:14;16.70;;;13.90;;
1346;SDS011;667;48.796;9.480;2024-03-06T08:39:40;15.93;;;12.90;;
1346;SDS011;667;48.796;9.480;2024-03-06T08:42:05;16.33;;;12.13;;
1346;SDS011;667;48.796;9.480;2024-03-06T08:44:31;14.60;;;12.40;;
1346;SDS011;667;48.796;9.480;2024-03-06T08:46:56;14.37;;;12.67;;
1346;SDS011;667;48.796;9.480;2024-03-06T08:49:22;20.87;;;15.93;;
1346;SDS011;667;48.796;9.480;2024-03-06T08:51:48;16.93;;;14.70;;
1346;SDS011;667;48.796;9.480;2024-03-06T08:54:13;23.17;;;14.43;;
1346;SDS011;667;48.796;9.480;2024-03-06T08:56:39;20.73;;;14.73;;
1346;SDS011;667;48.796;9.480;2024-03-06T08:59:04;20.67;;;13.90;;
1346;SDS011;667;48.796;9.480;2024-03-06T09:01:30;16.03;;;13.43;;
1346;SDS011;667;48.796;9.480;2024-03-06T09:03:55;14.40;;;12.47;;
1346;SDS011;667;48.796;9.480;2024-03-06T09:06:22;15.93;;;13.00;;
1346;SDS011;667;48.796;9.480;2024-03-06T09:08:48;13.43;;;12.03;;
1346;SDS011;667;48.796;9.480;2024-03-06T09:11:13;14.83;;;12.80;;
1346;SDS011;667;48.796;9.480;2024-03-06T09:13:39;16.27;;;14.07;;
1346;SDS011;667;48.796;9.480;2024-03-06T09:16:05;14.60;;;12.07;;
1346;SDS011;667;48.796;9.480;2024-03-06T09:18:30;15.73;;;13.03;;
1346;SDS011;667;48.796;9.480;2024-03-06T09:20:56;15.93;;;13.50;;
1346;SDS011;667;48.796;9.480;2024-03-06T09:23:22;15.33;;;12.70;;
1346;SDS011;667;48.796;9.480;2024-03-06T09:25:47;14.73;;;12.47;;
1346;SDS011;667;48.796;9.480;2024-03-06T09:28:13;16.07;;;12.90;;
1346;SDS011;667;48.796;9.480;2024-03-06T09:30:39;16.37;;;12.90;;
1346;SDS011;667;48.796;9.480;2024-03-06T09:33:06;14.70;;;13.05;;
1346;SDS011;667;48.796;9.480;2024-03-06T09:35:32;22.10;;;15.00;;
1346;SDS011;667;48.796;9.480;2024-03-06T09:37:57;18.43;;;14.07;;
1346;SDS011;667;48.796;9.480;2024-03-06T09:40:23;17.93;;;14.07;;
1346;SDS011;667;48.796;9.480;2024-03-06T09:42:50;17.27;;;12.90;;
1346;SDS011;667;48.796;9.480;2024-03-06T09:45:16;14.98;;;13.02;;
1346;SDS011;667;48.796;9.480;2024-03-06T09:47:42;19.15;;;16.30;;
1346;SDS011;667;48.796;9.480;2024-03-06T09:50:09;19.80;;;13.23;;
1346;SDS011;667;48.796;9.480;2024-03-06T09:52:36;16.00;;;13.15;;
1346;SDS011;667;48.796;9.480;2024-03-06T09:55:02;16.70;;;14.73;;
1346;SDS011;667;48.796;9.480;2024-03-06T09:57:28;15.32;;;13.65;;
1346;SDS011;667;48.796;9.480;2024-03-06T09:59:55;14.63;;;13.05;;
1346;SDS011;667;48.796;9.480;2024-03-06T10:04:49;13.63;;;12.00;;
1346;SDS011;667;48.796;9.480;2024-03-06T10:07:14;13.37;;;12.00;;
1346;SDS011;667;48.796;9.480;2024-03-06T10:09:40;15.47;;;12.90;;
1346;SDS011;667;48.796;9.480;2024-03-06T10:12:06;14.00;;;12.37;;
1346;SDS011;667;48.796;9.480;2024-03-06T10:14:31;15.47;;;13.83;;
1346;SDS011;667;48.796;9.480;2024-03-06T10:17:00;15.33;;;13.70;;
1346;SDS011;667;48.796;9.480;2024-03-06T10:19:27;16.60;;;13.70;;
1346;SDS011;667;48.796;9.480;2024-03-06T10:21:54;15.32;;;12.75;;
1346;SDS011;667;48.796;9.480;2024-03-06T10:24:22;16.50;;;13.85;;
1346;SDS011;667;48.796;9.480;2024-03-06T10:26:49;14.63;;;12.63;;
1346;SDS011;667;48.796;9.480;2024-03-06T10:29:17;15.50;;;13.90;;
1346;SDS011;667;48.796;9.480;2024-03-06T10:31:47;14.98;;;12.77;;
1346;SDS011;667;48.796;9.480;2024-03-06T10:34:23;15.30;;;13.65;;
1346;SDS011;667;48.796;9.480;2024-03-06T10:37:00;15.70;;;13.48;;
1346;SDS011;667;48.796;9.480;2024-03-06T10:39:30;14.88;;;12.65;;
1346;SDS011;667;48.796;9.480;2024-03-06T10:41:59;14.77;;;13.15;;
1346;SDS011;667;48.796;9.480;2024-03-06T10:44:27;16.48;;;14.77;;
1346;SDS011;667;48.796;9.480;2024-03-06T10:49:24;14.45;;;12.55;;
1346;SDS011;667;48.796;9.480;2024-03-06T10:51:52;15.73;;;12.82;;
1346;SDS011;667;48.796;9.480;2024-03-06T10:54:22;16.90;;;14.88;;
1346;SDS011;667;48.796;9.480;2024-03-06T10:56:51;15.55;;;13.95;;
1346;SDS011;667;48.796;9.480;2024-03-06T10:59:18;17.40;;;15.40;;
1346;SDS011;667;48.796;9.480;2024-03-06T11:01:46;18.30;;;14.85;;
1346;SDS011;667;48.796;9.480;2024-03-06T11:04:12;18.92;;;14.93;;
1346;SDS011;667;48.796;9.480;2024-03-06T11:06:40;17.20;;;13.73;;
1346;SDS011;667;48.796;9.480;2024-03-06T11:09:06;18.83;;;14.40;;
1346;SDS011;667;48.796;9.480;2024-03-06T11:11:46;18.90;;;13.90;;
1346;SDS011;667;48.796;9.480;2024-03-06T11:14:13;18.00;;;14.70;;
1346;SDS011;667;48.796;9.480;2024-03-06T11:17:00;18.33;;;14.07;;
1346;SDS011;667;48.796;9.480;2024-03-06T11:20:07;22.63;;;16.27;;
1346;SDS011;667;48.796;9.480;2024-03-06T11:28:22;20.00;;;15.43;;
1346;SDS011;667;48.796;9.480;2024-03-06T11:31:04;17.10;;;14.52;;
1346;SDS011;667;48.796;9.480;2024-03-06T11:38:59;18.73;;;14.82;;
1346;SDS011;667;48.796;9.480;2024-03-06T11:41:32;18.73;;;13.23;;
1346;SDS011;667;48.796;9.480;2024-03-06T11:44:05;19.00;;;16.65;;
1346;SDS011;667;48.796;9.480;2024-03-06T11:49:14;20.45;;;14.00;;
1346;SDS011;667;48.796;9.480;2024-03-06T11:51:40;17.90;;;14.52;;
1346;SDS011;667;48.796;9.480;2024-03-06T11:54:06;19.17;;;14.63;;
1346;SDS011;667;48.796;9.480;2024-03-06T11:56:31;19.80;;;15.83;;
1346;SDS011;667;48.796;9.480;2024-03-06T11:58:57;19.77;;;15.20;;
1346;SDS011;667;48.796;9.480;2024-03-06T12:01:24;21.40;;;15.13;;
1346;SDS011;667;48.796;9.480;2024-03-06T12:03:49;19.67;;;14.60;;
1346;SDS011;667;48.796;9.480;2024-03-06T12:06:15;18.43;;;15.10;;
1346;SDS011;667;48.796;9.480;2024-03-06T12:08:42;19.75;;;15.15;;
1346;SDS011;667;48.796;9.480;2024-03-06T12:11:08;19.10;;;15.97;;
1346;SDS011;667;48.796;9.480;2024-03-06T12:13:34;19.80;;;15.00;;
1346;SDS011;667;48.796;9.480;2024-03-06T12:16:03;19.45;;;15.45;;
1346;SDS011;667;48.796;9.480;2024-03-06T12:18:32;20.85;;;15.10;;
1346;SDS011;667;48.796;9.480;2024-03-06T12:21:00;18.58;;;15.38;;
1346;SDS011;667;48.796;9.480;2024-03-06T12:23:27;19.13;;;13.93;;
1346;SDS011;667;48.796;9.480;2024-03-06T12:26:06;19.20;;;15.23;;
1346;SDS011;667;48.796;9.480;2024-03-06T12:28:35;18.48;;;15.27;;
1346;SDS011;667;48.796;9.480;2024-03-06T12:31:04;16.17;;;14.05;;
1346;SDS011;667;48.796;9.480;2024-03-06T12:33:31;23.00;;;17.27;;
1346;SDS011;667;48.796;9.480;2024-03-06T12:36:05;22.42;;;14.80;;
1346;SDS011;667;48.796;9.480;2024-03-06T12:38:35;19.65;;;13.95;;
1346;SDS011;667;48.796;9.480;2024-03-06T12:41:01;19.45;;;13.70;;
1346;SDS011;667;48.796;9.480;2024-03-06T12:43:28;21.55;;;15.05;;
1346;SDS011;667;48.796;9.480;2024-03-06T12:45:54;19.83;;;14.50;;
1346;SDS011;667;48.796;9.480;2024-03-06T12:48:21;20.17;;;14.88;;
1346;SDS011;667;48.796;9.480;2024-03-06T12:50:47;21.40;;;16.03;;
1346;SDS011;667;48.796;9.480;2024-03-06T12:53:17;22.00;;;16.10;;
1346;SDS011;667;48.796;9.480;2024-03-06T12:55:44;24.75;;;17.65;;
1346;SDS011;667;48.796;9.480;2024-03-06T12:58:11;28.33;;;18.33;;
1346;SDS011;667;48.796;9.480;2024-03-06T13:00:37;24.83;;;17.63;;
1346;SDS011;667;48.796;9.480;2024-03-06T13:03:03;21.20;;;15.20;;
1346;SDS011;667;48.796;9.480;2024-03-06T13:05:28;18.77;;;14.80;;
1346;SDS011;667;48.796;9.480;2024-03-06T13:07:54;17.60;;;14.40;;
1346;SDS011;667;48.796;9.480;2024-03-06T13:10:19;18.47;;;14.53;;
1346;SDS011;667;48.796;9.480;2024-03-06T13:12:47;21.60;;;15.85;;
1346;SDS011;667;48.796;9.480;2024-03-06T13:15:12;18.50;;;14.60;;
1346;SDS011;667;48.796;9.480;2024-03-06T13:17:38;21.17;;;15.77;;
1346;SDS011;667;48.796;9.480;2024-03-06T13:20:05;21.88;;;15.80;;
1346;SDS011;667;48.796;9.480;2024-03-06T13:22:34;21.38;;;15.82;;
1346;SDS011;667;48.796;9.480;2024-03-06T13:25:00;21.93;;;16.50;;
1346;SDS011;667;48.796;9.480;2024-03-06T13:27:25;22.40;;;16.67;;
1346;SDS011;667;48.796;9.480;2024-03-06T13:29:51;19.57;;;15.70;;
1346;SDS011;667;48.796;9.480;2024-03-06T13:32:18;21.48;;;16.85;;
1346;SDS011;667;48.796;9.480;2024-03-06T13:34:44;21.47;;;16.17;;
1346;SDS011;667;48.796;9.480;2024-03-06T13:37:09;21.50;;;16.40;;
1346;SDS011;667;48.796;9.480;2024-03-06T13:39:35;23.37;;;16.50;;
1346;SDS011;667;48.796;9.480;2024-03-06T13:42:01;24.73;;;17.02;;
1346;SDS011;667;48.796;9.480;2024-03-06T13:44:27;27.03;;;17.70;;
1346;SDS011;667;48.796;9.480;2024-03-06T13:46:53;25.40;;;16.73;;
1346;SDS011;667;48.796;9.480;2024-03-06T13:49:38;24.50;;;16.13;;
1346;SDS011;667;48.796;9.480;2024-03-06T13:52:05;22.80;;;15.88;;
1346;SDS011;667;48.796;9.480;2024-03-06T13:54:32;23.25;;;16.25;;
1346;SDS011;667;48.796;9.480;2024-03-06T13:56:58;29.83;;;18.23;;
1346;SDS011;667;48.796;9.480;2024-03-06T13:59:28;24.67;;;17.35;;
1346;SDS011;667;48.796;9.480;2024-03-06T14:01:55;22.13;;;16.75;;
1346;SDS011;667;48.796;9.480;2024-03-06T14:04:21;20.90;;;16.27;;
1346;SDS011;667;48.796;9.480;2024-03-06T14:06:47;25.57;;;17.67;;
1346;SDS011;667;48.796;9.480;2024-03-06T14:09:13;28.30;;;18.65;;
1346;SDS011;667;48.796;9.480;2024-03-06T14:11:39;24.83;;;16.63;;
1346;SDS011;667;48.796;9.480;2024-03-06T14:14:05;24.83;;;18.33;;
1346;SDS011;667;48.796;9.480;2024-03-06T14:16:31;23.90;;;17.20;;
1346;SDS011;667;48.796;9.480;2024-03-06T14:18:57;25.00;;;16.80;;
1346;SDS011;667;48.796;9.480;2024-03-06T14:21:22;27.50;;;17.90;;
1346;SDS011;667;48.796;9.480;2024-03-06T14:23:48;23.90;;;17.47;;
1346;SDS011;667;48.796;9.480;2024-03-06T14:26:14;22.87;;;16.77;;
1346;SDS011;667;48.796;9.480;2024-03-06T14:28:41;26.42;;;16.67;;
1346;SDS011;667;48.796;9.480;2024-03-06T14:31:06;26.63;;;18.50;;
1346;SDS011;667;48.796;9.480;2024-03-06T14:33:32;25.83;;;17.55;;
1346;SDS011;667;48.796;9.480;2024-03-06T14:35:58;21.97;;;14.37;;
1346;SDS011;667;48.796;9.480;2024-03-06T14:38:24;19.42;;;15.18;;
1346;SDS011;667;48.796;9.480;2024-03-06T14:40:50;19.93;;;14.77;;
1346;SDS011;667;48.796;9.480;2024-03-06T14:43:15;21.37;;;15.00;;
1346;SDS011;667;48.796;9.480;2024-03-06T14:45:42;17.00;;;13.85;;
1346;SDS011;667;48.796;9.480;2024-03-06T14:48:10;21.30;;;14.07;;
1346;SDS011;667;48.796;9.480;2024-03-06T14:50:35;20.07;;;14.57;;
1346;SDS011;667;48.796;9.480;2024-03-06T14:53:01;21.88;;;15.82;;
1346;SDS011;667;48.796;9.480;2024-03-06T14:55:27;21.05;;;14.63;;
1346;SDS011;667;48.796;9.480;2024-03-06T14:57:53;20.48;;;14.98;;
1346;SDS011;667;48.796;9.480;2024-03-06T15:00:19;18.73;;;14.40;;
1346;SDS011;667;48.796;9.480;2024-03-06T15:02:46;18.20;;;13.70;;
1346;SDS011;667;48.796;9.480;2024-03-06T15:05:12;17.80;;;14.00;;
1346;SDS011;667;48.796;9.480;2024-03-06T15:07:38;19.95;;;13.75;;
1346;SDS011;667;48.796;9.480;2024-03-06T15:10:05;20.20;;;15.93;;
1346;SDS011;667;48.796;9.480;2024-03-06T15:12:31;20.42;;;14.73;;
1346;SDS011;667;48.796;9.480;2024-03-06T15:14:57;21.20;;;14.00;;
1346;SDS011;667;48.796;9.480;2024-03-06T15:17:24;22.40;;;15.10;;
1346;SDS011;667;48.796;9.480;2024-03-06T15:19:53;19.70;;;14.00;;
1346;SDS011;667;48.796;9.480;2024-03-06T15:22:19;20.75;;;14.35;;
1346;SDS011;667;48.796;9.480;2024-03-06T15:24:45;19.73;;;13.47;;
1346;SDS011;667;48.796;9.480;2024-03-06T15:27:11;21.17;;;14.13;;
1346;SDS011;667;48.796;9.480;2024-03-06T15:29:40;21.33;;;14.95;;